Paramount Halifax — 2CWC2 — position and weather

sailwx.info

Track history (hours):
 
Tides and Currents Weather Stations Pressure Air Temp Water Temp Dewpoint Dewpoint Depression Visibility Wind Speed Wind Dir Waves Ship Positions

Paramount Halifax

Last reported at 2018-Apr-19 08:23 UTC. Time now 2018-Apr-19 19:23 UTC.
Position N 28°45' W 094°08'.

Length 250 m; draft 8.6 m.

Type: Ship. MMSI: 235076282.

Date/timePositionNaut miles runAvg speedWind from/ knotsBaromVisibWave heightAir tempDewpointWater temp
2018-Apr-19 08:23N 28°45' W 094°08'0 0.6
2018-Apr-19 08:00N 28°45' W 094°08'1 1.4
2018-Apr-19 07:30N 28°45' W 094°08'2 3.2
2018-Apr-19 07:00N 28°43' W 094°08'2 3.2
2018-Apr-19 06:29N 28°42' W 094°10'2 3.0
2018-Apr-19 05:54N 28°40' W 094°11'1 2.1
2018-Apr-19 05:18N 28°39' W 094°11'2 2.0
2018-Apr-19 04:11N 28°38' W 094°09'1 3.1
2018-Apr-19 04:00N 28°38' W 094°09'26 2.3
2018-Apr-18 16:42N 28°30' W 093°40'0 0.2
2018-Apr-18 16:30N 28°31' W 093°40'0 0.1
2018-Apr-18 15:51N 28°30' W 093°40'0 0.1
2018-Apr-18 15:24N 28°31' W 093°40'0 0.0
2018-Apr-18 15:00N 28°31' W 093°40'0 0.0
2018-Apr-18 14:30N 28°31' W 093°40'0 0.1
2018-Apr-18 13:57N 28°30' W 093°40'0 0.1
2018-Apr-18 13:30N 28°31' W 093°40'0 0.0
2018-Apr-18 13:00N 28°31' W 093°40'0 0.3
2018-Apr-18 12:30N 28°30' W 093°40'2 4.6
2018-Apr-18 12:00N 28°32' W 093°38'3 6.1
2018-Apr-18 11:28N 28°35' W 093°36'1 1.8
2018-Apr-18 11:00N 28°34' W 093°36'1 1.9
2018-Apr-18 10:30N 28°33' W 093°35'1 1.2
2018-Apr-18 10:00N 28°33' W 093°35'2 3.3
2018-Apr-18 09:30N 28°34' W 093°35'1 2.9
2018-Apr-18 09:00N 28°36' W 093°35'1 1.3
2018-Apr-18 08:30N 28°35' W 093°35'1 2.0
2018-Apr-18 08:00N 28°34' W 093°35'1 1.9
2018-Apr-18 07:30N 28°33' W 093°34'1 2.9
2018-Apr-18 07:00N 28°32' W 093°36'3 5.4
2018-Apr-18 06:25N 28°32' W 093°39'8 6.0
2018-Apr-18 05:04N 28°32' W 093°48'112.3
2018-Apr-18 05:00N 28°32' W 093°49'612.4
2018-Apr-18 04:30N 28°34' W 093°56'612.4
2018-Apr-18 04:00N 28°36' W 094°03'612.5
2018-Apr-18 03:30N 28°37' W 094°10'612.4
2018-Apr-18 03:00N 28°38' W 094°17'612.4
2018-Apr-18 02:30N 28°39' W 094°23'612.1
2018-Apr-18 02:00N 28°41' W 094°30'4 7.9
2018-Apr-18 01:30N 28°41' W 094°35'1 1.4
2018-Apr-18 01:00N 28°41' W 094°35'1 2.5
2018-Apr-18 00:30N 28°40' W 094°36'1 1.6
2018-Apr-18 00:00N 28°40' W 094°35'0 0.6
2018-Apr-17 23:30N 28°39' W 094°35'0 0.6
2018-Apr-17 22:59N 28°39' W 094°35'0 0.5
2018-Apr-17 22:30N 28°39' W 094°35'0 0.6
2018-Apr-17 22:00N 28°39' W 094°35'0 0.7
2018-Apr-17 21:30N 28°38' W 094°34'0 0.7
2018-Apr-17 21:00N 28°38' W 094°34'0 0.7
2018-Apr-17 20:30N 28°38' W 094°34'0 0.7
2018-Apr-17 20:00N 28°38' W 094°34'1 1.1
2018-Apr-17 19:30N 28°37' W 094°33'1 1.0
2018-Apr-17 19:00N 28°37' W 094°33'1 1.1
2018-Apr-17 18:30N 28°36' W 094°33'1 1.8
2018-Apr-17 18:00N 28°36' W 094°32'1 2.4
2018-Apr-17 17:30N 28°36' W 094°30'1 1.0
2018-Apr-17 16:39N 28°37' W 094°30'0 0.1
2018-Apr-17 16:10N 28°37' W 094°30'0 0.0
2018-Apr-17 15:47N 28°37' W 094°30'0 0.0
2018-Apr-17 15:30N 28°37' W 094°30'0 0.0
2018-Apr-17 13:56N 28°37' W 094°30'0 0.0
2018-Apr-17 13:29N 28°37' W 094°30'0 0.0
2018-Apr-17 13:00N 28°37' W 094°30'0 0.0
2018-Apr-17 12:30N 28°37' W 094°30'0 0.0
2018-Apr-17 11:54N 28°37' W 094°30'0 0.0
2018-Apr-17 11:30N 28°37' W 094°30'0 0.0
2018-Apr-17 11:00N 28°37' W 094°30'0 0.0
2018-Apr-17 10:22N 28°37' W 094°30'0 0.0
2018-Apr-17 09:50N 28°37' W 094°30'0 0.0
2018-Apr-17 09:29N 28°37' W 094°30'0 0.0
2018-Apr-17 08:59N 28°37' W 094°30'0 0.0
2018-Apr-17 08:30N 28°37' W 094°30'0 0.0
2018-Apr-17 08:00N 28°37' W 094°30'0 0.0
2018-Apr-17 07:30N 28°37' W 094°30'0 0.0
2018-Apr-17 06:58N 28°37' W 094°30'0 0.0
2018-Apr-17 06:30N 28°37' W 094°30'0 0.0
2018-Apr-17 06:00N 28°37' W 094°30'0 0.0
2018-Apr-17 05:30N 28°37' W 094°30'0 0.0
2018-Apr-17 05:00N 28°37' W 094°30'0 0.9
2018-Apr-17 04:30N 28°36' W 094°29'1 2.6
2018-Apr-17 04:00N 28°36' W 094°28'1 2.1
2018-Apr-17 03:30N 28°36' W 094°26'2 4.7
2018-Apr-17 03:00N 28°36' W 094°24'3 5.1
2018-Apr-17 02:28N 28°35' W 094°21'3 5.3
2018-Apr-17 01:59N 28°35' W 094°18'2 3.6
2018-Apr-17 01:30N 28°36' W 094°16'1 0.9
2018-Apr-17 00:17N 28°37' W 094°16'311.4
2018-Apr-17 00:00N 28°39' W 094°14'611.9
2018-Apr-16 23:30N 28°43' W 094°09'611.9
2018-Apr-16 23:00N 28°48' W 094°04'811.8
2018-Apr-16 22:21N 28°54' W 093°59'411.5
2018-Apr-16 22:00N 28°57' W 093°56'611.5
2018-Apr-16 21:30N 29°02' W 093°52'910.6
2018-Apr-16 20:40N 29°08' W 093°45'211.2
2018-Apr-16 20:31N 29°10' W 093°44'610.7
2018-Apr-16 19:57N 29°15' W 093°42'4 9.5
2018-Apr-16 19:31N 29°19' W 093°40'5 9.8
2018-Apr-16 19:00N 29°24' W 093°40'5 9.1
2018-Apr-16 18:30N 29°29' W 093°40'510.0
2018-Apr-16 18:00N 29°32' W 093°44'510.1
2018-Apr-16 17:30N 29°36' W 093°48'5 9.9
2018-Apr-16 17:00N 29°40' W 093°50'5 9.3
2018-Apr-16 16:30N 29°44' W 093°53'4 7.8
2018-Apr-16 16:01N 29°47' W 093°56'3 6.9
2018-Apr-16 15:30N 29°50' W 093°57'2 4.7
2018-Apr-16 15:00N 29°52' W 093°56'3 6.7
2018-Apr-16 14:30N 29°55' W 093°54'2 4.9
2018-Apr-16 14:00N 29°57' W 093°52'2 4.7
2018-Apr-16 13:30N 29°59' W 093°53'3 5.5
2018-Apr-16 13:00N 29°59' W 093°56'2 4.4
2018-Apr-16 12:30N 30°01' W 093°58'1 3.0
2018-Apr-16 12:00N 30°01' W 093°59'0 0.0
2018-Apr-16 11:30N 30°01' W 093°59'0 0.0
2018-Apr-16 11:00N 30°01' W 093°59'0 0.0
2018-Apr-16 10:30N 30°01' W 093°59'0 0.0
2018-Apr-16 10:00N 30°01' W 093°59'0 0.0
2018-Apr-16 09:30N 30°01' W 093°59'0 0.0
2018-Apr-16 09:00N 30°01' W 093°59'0 0.0
2018-Apr-16 08:30N 30°01' W 093°59'0 0.0
2018-Apr-16 08:00N 30°01' W 093°59'0 0.0
2018-Apr-16 07:30N 30°01' W 093°59'0 0.0
2018-Apr-16 07:00N 30°01' W 093°59'0 0.0
2018-Apr-16 06:30N 30°01' W 093°59'0 0.0
2018-Apr-16 06:00N 30°01' W 093°59'0 0.0
2018-Apr-16 05:30N 30°01' W 093°59'0 0.0
2018-Apr-16 05:00N 30°01' W 093°59'0 0.0
2018-Apr-16 04:30N 30°01' W 093°59'0 0.0
2018-Apr-16 04:00N 30°01' W 093°59'0 0.0
2018-Apr-16 03:30N 30°01' W 093°59'0 0.0
2018-Apr-16 03:00N 30°01' W 093°59'0 0.0
2018-Apr-16 02:30N 30°01' W 093°59'0 0.0
2018-Apr-16 02:00N 30°01' W 093°59'0 0.0
2018-Apr-16 01:30N 30°01' W 093°59'0 0.0
2018-Apr-16 01:00N 30°01' W 093°59'0 0.0
2018-Apr-16 00:30N 30°01' W 093°59'0 0.0
2018-Apr-16 00:00N 30°01' W 093°59'0 0.0
2018-Apr-15 23:30N 30°01' W 093°59'0 0.0
2018-Apr-15 23:00N 30°01' W 093°59'0 0.0
2018-Apr-15 22:30N 30°01' W 093°59'0 0.0
2018-Apr-15 22:00N 30°01' W 093°59'0 0.0
2018-Apr-15 21:30N 30°01' W 093°59'0 0.0
2018-Apr-15 21:00N 30°01' W 093°59'0 0.0
2018-Apr-15 20:30N 30°01' W 093°59'0 0.0
2018-Apr-15 20:00N 30°01' W 093°59'0 0.0
2018-Apr-15 19:30N 30°01' W 093°59'0 0.0
2018-Apr-15 19:00N 30°01' W 093°59'0 0.0
2018-Apr-15 18:30N 30°01' W 093°59'0 0.0
2018-Apr-15 18:00N 30°01' W 093°59'0 0.0
2018-Apr-15 17:30N 30°01' W 093°59'0 0.0
2018-Apr-15 17:00N 30°01' W 093°59'0 0.0
2018-Apr-15 16:30N 30°01' W 093°59'0 0.0
2018-Apr-15 16:00N 30°01' W 093°59'0 0.0
2018-Apr-15 15:30N 30°01' W 093°59'0 0.0
2018-Apr-15 15:00N 30°01' W 093°59'0 0.0
2018-Apr-15 14:27N 30°01' W 093°59'0 0.0
2018-Apr-15 14:00N 30°01' W 093°59'0 0.0
2018-Apr-15 13:30N 30°01' W 093°59'0 0.0
2018-Apr-15 13:00N 30°01' W 093°59'0 0.0
2018-Apr-15 12:30N 30°01' W 093°59'0 0.0
2018-Apr-15 12:00N 30°01' W 093°59'0 0.0
2018-Apr-15 11:30N 30°01' W 093°59'0 0.0
2018-Apr-15 11:00N 30°01' W 093°59'0 0.0
2018-Apr-15 10:30N 30°01' W 093°59'0 0.0
2018-Apr-15 10:00N 30°01' W 093°59'0 0.0
2018-Apr-15 09:30N 30°01' W 093°59'0 0.0
2018-Apr-15 09:00N 30°01' W 093°59'0 0.0
2018-Apr-15 08:30N 30°01' W 093°59'0 0.0
2018-Apr-15 08:00N 30°01' W 093°59'0 0.0
2018-Apr-15 07:30N 30°01' W 093°59'0 0.0
2018-Apr-15 07:00N 30°01' W 093°59'0 0.0
2018-Apr-15 06:30N 30°01' W 093°59'0 0.0
2018-Apr-15 06:00N 30°01' W 093°59'0 0.0
2018-Apr-15 05:30N 30°01' W 093°59'0 0.0
2018-Apr-15 05:00N 30°01' W 093°59'0 0.0
2018-Apr-15 04:30N 30°01' W 093°59'0 0.0
2018-Apr-15 04:00N 30°01' W 093°59'0 0.0
2018-Apr-15 03:30N 30°01' W 093°59'0 0.0
2018-Apr-15 03:00N 30°01' W 093°59'0 0.0
2018-Apr-15 02:30N 30°01' W 093°59'0 0.0
2018-Apr-15 02:00N 30°01' W 093°59'0 0.0
2018-Apr-15 01:30N 30°01' W 093°59'0 0.1
2018-Apr-15 01:00N 30°01' W 093°59'0 0.0
2018-Apr-15 00:30N 30°01' W 093°59'0 0.0
2018-Apr-15 00:00N 30°01' W 093°59'0 0.0
2018-Apr-14 23:30N 30°01' W 093°59'0 0.0
2018-Apr-14 23:00N 30°01' W 093°59'0 0.0
2018-Apr-14 22:30N 30°01' W 093°59'0 0.0
2018-Apr-14 22:00N 30°01' W 093°59'0 0.0
2018-Apr-14 21:30N 30°01' W 093°59'0 0.0
2018-Apr-14 21:00N 30°01' W 093°59'0 0.0
2018-Apr-14 20:30N 30°01' W 093°59'0 0.0
2018-Apr-14 20:00N 30°01' W 093°59'0 0.0
2018-Apr-14 19:24N 30°01' W 093°59'0 0.0
2018-Apr-14 19:00N 30°01' W 093°59'0 0.0
2018-Apr-14 18:30N 30°01' W 093°59'0 0.1
2018-Apr-14 18:00N 30°01' W 093°59'2 4.3
2018-Apr-14 17:30N 29°60' W 093°57'2 4.8
2018-Apr-14 17:00N 29°59' W 093°54'0 0.2
2018-Apr-14 16:30N 29°59' W 093°54'0 0.0
2018-Apr-14 16:00N 29°59' W 093°54'0 0.0
2018-Apr-14 15:30N 29°59' W 093°54'0 0.0
2018-Apr-14 15:00N 29°59' W 093°54'0 0.0
2018-Apr-14 14:30N 29°59' W 093°54'0 0.0
2018-Apr-14 14:00N 29°59' W 093°54'0 0.0
2018-Apr-14 13:30N 29°59' W 093°54'0 0.1
2018-Apr-14 13:00N 29°59' W 093°54'0 0.1
2018-Apr-14 12:30N 29°59' W 093°54'0 0.0
2018-Apr-14 12:00N 29°59' W 093°54'0 0.0
2018-Apr-14 11:30N 29°59' W 093°54'0 0.1
2018-Apr-14 11:00N 29°59' W 093°54'0 0.1
2018-Apr-14 10:30N 29°59' W 093°54'0 0.1
2018-Apr-14 10:00N 29°59' W 093°54'0 0.0
2018-Apr-14 09:30N 29°59' W 093°54'0 0.3
2018-Apr-14 09:00N 29°59' W 093°54'0 0.0
2018-Apr-14 08:30N 29°59' W 093°54'0 0.0
2018-Apr-14 08:00N 29°59' W 093°54'0 0.0
2018-Apr-14 07:30N 29°59' W 093°54'0 0.0
2018-Apr-14 07:00N 29°59' W 093°54'0 0.0
2018-Apr-14 06:30N 29°59' W 093°54'0 0.0
2018-Apr-14 06:00N 29°59' W 093°54'0 0.0
2018-Apr-14 05:30N 29°59' W 093°54'0 0.0
2018-Apr-14 05:00N 29°59' W 093°54'0 0.1
2018-Apr-14 04:30N 29°59' W 093°54'0 0.3
2018-Apr-14 04:00N 29°59' W 093°54'1 2.6
2018-Apr-14 03:29N 29°59' W 093°56'0 0.7
2018-Apr-14 03:01N 29°60' W 093°56'0 0.0
2018-Apr-14 02:29N 29°60' W 093°56'0 0.0
2018-Apr-14 01:59N 29°60' W 093°56'0 0.0
2018-Apr-14 01:29N 29°60' W 093°56'0 0.0
2018-Apr-14 00:59N 29°60' W 093°56'0 0.0
2018-Apr-14 00:29N 29°59' W 093°56'0 0.0
2018-Apr-13 23:56N 29°60' W 093°56'0 0.0
2018-Apr-13 23:29N 29°60' W 093°56'0 0.0
2018-Apr-13 22:59N 29°60' W 093°56'0 0.0
2018-Apr-13 22:29N 29°59' W 093°56'0 0.0
2018-Apr-13 21:59N 29°59' W 093°56'0 0.0
2018-Apr-13 21:29N 29°59' W 093°56'0 0.0
2018-Apr-13 20:59N 29°59' W 093°56'0 0.0
2018-Apr-13 20:29N 29°60' W 093°56'0 0.0
2018-Apr-13 19:59N 29°60' W 093°56'0 0.0
2018-Apr-13 19:26N 29°60' W 093°56'0 0.0
2018-Apr-13 18:59N 29°60' W 093°56'0 0.0
2018-Apr-13 18:29N 29°59' W 093°56'0 0.0
2018-Apr-13 17:59N 29°59' W 093°56'0 0.0
2018-Apr-13 17:29N 29°60' W 093°56'0 0.0
2018-Apr-13 16:59N 29°59' W 093°56'0 0.0
2018-Apr-13 16:29N 29°60' W 093°56'0 0.0
2018-Apr-13 15:59N 29°60' W 093°56'0 0.0
2018-Apr-13 15:29N 29°59' W 093°56'0 0.0
2018-Apr-13 14:59N 29°59' W 093°56'0 0.0
2018-Apr-13 14:29N 29°59' W 093°56'0 0.0
2018-Apr-13 13:59N 29°60' W 093°56'0 0.0
2018-Apr-13 13:29N 29°60' W 093°56'0 0.0
2018-Apr-13 12:59N 29°60' W 093°56'0 0.0
2018-Apr-13 12:29N 29°59' W 093°56'0 0.0
2018-Apr-13 11:59N 29°59' W 093°56'0 0.0
2018-Apr-13 11:29N 29°59' W 093°56'0 0.0
2018-Apr-13 10:59N 29°60' W 093°56'0 0.0
2018-Apr-13 10:26N 29°60' W 093°56'0 0.0
2018-Apr-13 09:59N 29°60' W 093°56'0 0.0
2018-Apr-13 09:26N 29°59' W 093°56'0 0.0
2018-Apr-13 08:59N 29°60' W 093°56'0 0.0
2018-Apr-13 08:29N 29°60' W 093°56'0 0.0
2018-Apr-13 07:59N 29°60' W 093°56'0 0.0
2018-Apr-13 07:29N 29°60' W 093°56'0 0.0
2018-Apr-13 06:59N 29°59' W 093°56'0 0.0
2018-Apr-13 06:29N 29°59' W 093°56'0 0.0
2018-Apr-13 05:59N 29°59' W 093°56'0 0.0
2018-Apr-13 05:29N 29°60' W 093°56'0 0.0
2018-Apr-13 04:59N 29°60' W 093°56'0 0.0
2018-Apr-13 04:29N 29°60' W 093°56'0 0.0
2018-Apr-13 03:59N 29°59' W 093°56'0 0.0
2018-Apr-13 03:29N 29°59' W 093°56'0 0.0
2018-Apr-13 02:56N 29°59' W 093°56'0 0.0
2018-Apr-13 02:29N 29°60' W 093°56'0 0.0
2018-Apr-13 01:59N 29°60' W 093°56'0 0.0
2018-Apr-13 01:29N 29°60' W 093°56'0 0.0
2018-Apr-13 00:59N 29°60' W 093°56'0 0.0
2018-Apr-13 00:29N 29°59' W 093°56'0 0.0
2018-Apr-12 23:59N 29°60' W 093°56'0 0.0
2018-Apr-12 23:29N 29°60' W 093°56'0 0.0
2018-Apr-12 23:00N 29°60' W 093°56'2 4.4
2018-Apr-12 22:30N 29°59' W 093°54'2 4.7
2018-Apr-12 22:00N 29°58' W 093°51'3 5.8
2018-Apr-12 21:30N 29°55' W 093°53'3 6.4
2018-Apr-12 21:00N 29°53' W 093°55'3 5.2
2018-Apr-12 20:30N 29°51' W 093°57'3 6.3
2018-Apr-12 20:00N 29°48' W 093°57'3 6.8
2018-Apr-12 19:30N 29°46' W 093°54'4 7.7
2018-Apr-12 19:00N 29°42' W 093°51'5 9.1
2018-Apr-12 18:30N 29°38' W 093°49'5 9.5
2018-Apr-12 18:00N 29°34' W 093°46'5 9.9
2018-Apr-12 17:30N 29°31' W 093°42'5 8.9
2018-Apr-12 17:00N 29°27' W 093°40'3 7.1
2018-Apr-12 16:30N 29°23' W 093°40'1 1.9
2018-Apr-12 16:00N 29°22' W 093°40'1 1.1
2018-Apr-12 15:29N 29°22' W 093°41'1 3.0
2018-Apr-12 15:00N 29°21' W 093°42'0 0.4
2018-Apr-12 14:30N 29°21' W 093°42'0 0.0
2018-Apr-12 14:00N 29°21' W 093°42'0 0.0
2018-Apr-12 13:30N 29°21' W 093°42'0 0.0
2018-Apr-12 13:00N 29°21' W 093°42'0 0.0
2018-Apr-12 12:30N 29°21' W 093°42'0 0.0
2018-Apr-12 12:00N 29°21' W 093°42'0 0.0
2018-Apr-12 11:30N 29°21' W 093°42'0 0.0
2018-Apr-12 10:57N 29°21' W 093°42'0 0.1
2018-Apr-12 10:30N 29°21' W 093°42'0 0.1
2018-Apr-12 10:00N 29°21' W 093°42'0 0.0
2018-Apr-12 09:30N 29°21' W 093°42'0 0.0
2018-Apr-12 09:00N 29°21' W 093°42'0 0.1
2018-Apr-12 08:18N 29°21' W 093°42'0 0.1
2018-Apr-12 07:48N 29°21' W 093°42'0 0.0
2018-Apr-12 07:30N 29°21' W 093°42'0 0.0
2018-Apr-12 07:00N 29°21' W 093°42'0 0.0
2018-Apr-12 06:15N 29°21' W 093°42'0 0.0
2018-Apr-12 05:57N 29°21' W 093°42'0 0.0
2018-Apr-12 05:30N 29°21' W 093°42'0 0.0
2018-Apr-12 05:00N 29°21' W 093°42'0 0.0
2018-Apr-12 04:18N 29°21' W 093°42'0 0.0
2018-Apr-12 03:24N 29°21' W 093°42'0 0.0
2018-Apr-12 03:00N 29°21' W 093°42'0 0.0
2018-Apr-12 02:30N 29°21' W 093°42'0 0.0
2018-Apr-12 02:00N 29°21' W 093°42'0 0.0
2018-Apr-12 01:30N 29°21' W 093°42'0 0.0
2018-Apr-12 01:00N 29°21' W 093°42'0 0.1
2018-Apr-12 00:28N 29°21' W 093°42'1 2.6
2018-Apr-12 00:00N 29°20' W 093°41'4 7.1
2018-Apr-11 23:30N 29°16' W 093°42'5 9.4
2018-Apr-11 23:00N 29°12' W 093°42'510.1
2018-Apr-11 22:30N 29°07' W 093°42'5 9.7
2018-Apr-11 22:00N 29°03' W 093°45'43 8.8
2018-Apr-11 17:08N 28°28' W 094°14'13 0.5
2018-Apr-10 14:08N 28°40' W 094°22'0 0.3
2018-Apr-10 13:47N 28°40' W 094°22'0 0.0
2018-Apr-09 22:53N 28°40' W 094°22'1 1.4
2018-Apr-09 22:28N 28°40' W 094°21'1 1.8
2018-Apr-09 21:58N 28°40' W 094°20'1 1.8
2018-Apr-09 21:30N 28°40' W 094°19'2 3.5
2018-Apr-09 20:49N 28°40' W 094°22'1 3.8
2018-Apr-09 20:29N 28°40' W 094°23'1 2.0
2018-Apr-09 19:56N 28°40' W 094°22'1 1.9
2018-Apr-09 19:16N 28°40' W 094°21'1 1.7
2018-Apr-09 18:43N 28°40' W 094°20'1 2.0
2018-Apr-09 18:17N 28°40' W 094°19'2 6.0
2018-Apr-09 18:00N 28°39' W 094°19'4 3.2
2018-Apr-09 16:49N 28°35' W 094°19'411.4
2018-Apr-09 16:30N 28°31' W 094°19'  
Track history (hours):
 
Tides and Currents Weather Stations Pressure Air Temp Water Temp Dewpoint Dewpoint Depression Visibility Wind Speed Wind Dir Waves Ship Positions

Paramount Halifax

Last reported at 2018-Apr-19 08:23 UTC. Time now 2018-Apr-19 19:23 UTC.
Position N 28°45' W 094°08'.

Length 250 m; draft 8.6 m.

Type: Ship. MMSI: 235076282.

Date/timePositionNaut miles runAvg speedWind from/ knotsBaromVisibWave heightAir tempDewpointWater temp
2018-Apr-19 08:23N 28°45' W 094°08'0 0.6
2018-Apr-19 08:00N 28°45' W 094°08'1 1.4
2018-Apr-19 07:30N 28°45' W 094°08'2 3.2
2018-Apr-19 07:00N 28°43' W 094°08'2 3.2
2018-Apr-19 06:29N 28°42' W 094°10'2 3.0
2018-Apr-19 05:54N 28°40' W 094°11'1 2.1
2018-Apr-19 05:18N 28°39' W 094°11'2 2.0
2018-Apr-19 04:11N 28°38' W 094°09'1 3.1
2018-Apr-19 04:00N 28°38' W 094°09'26 2.3
2018-Apr-18 16:42N 28°30' W 093°40'0 0.2
2018-Apr-18 16:30N 28°31' W 093°40'0 0.1
2018-Apr-18 15:51N 28°30' W 093°40'0 0.1
2018-Apr-18 15:24N 28°31' W 093°40'0 0.0
2018-Apr-18 15:00N 28°31' W 093°40'0 0.0
2018-Apr-18 14:30N 28°31' W 093°40'0 0.1
2018-Apr-18 13:57N 28°30' W 093°40'0 0.1
2018-Apr-18 13:30N 28°31' W 093°40'0 0.0
2018-Apr-18 13:00N 28°31' W 093°40'0 0.3
2018-Apr-18 12:30N 28°30' W 093°40'2 4.6
2018-Apr-18 12:00N 28°32' W 093°38'3 6.1
2018-Apr-18 11:28N 28°35' W 093°36'1 1.8
2018-Apr-18 11:00N 28°34' W 093°36'1 1.9
2018-Apr-18 10:30N 28°33' W 093°35'1 1.2
2018-Apr-18 10:00N 28°33' W 093°35'2 3.3
2018-Apr-18 09:30N 28°34' W 093°35'1 2.9
2018-Apr-18 09:00N 28°36' W 093°35'1 1.3
2018-Apr-18 08:30N 28°35' W 093°35'1 2.0
2018-Apr-18 08:00N 28°34' W 093°35'1 1.9
2018-Apr-18 07:30N 28°33' W 093°34'1 2.9
2018-Apr-18 07:00N 28°32' W 093°36'3 5.4
2018-Apr-18 06:25N 28°32' W 093°39'8 6.0
2018-Apr-18 05:04N 28°32' W 093°48'112.3
2018-Apr-18 05:00N 28°32' W 093°49'612.4
2018-Apr-18 04:30N 28°34' W 093°56'612.4
2018-Apr-18 04:00N 28°36' W 094°03'612.5
2018-Apr-18 03:30N 28°37' W 094°10'612.4
2018-Apr-18 03:00N 28°38' W 094°17'612.4
2018-Apr-18 02:30N 28°39' W 094°23'612.1
2018-Apr-18 02:00N 28°41' W 094°30'4 7.9
2018-Apr-18 01:30N 28°41' W 094°35'1 1.4
2018-Apr-18 01:00N 28°41' W 094°35'1 2.5
2018-Apr-18 00:30N 28°40' W 094°36'1 1.6
2018-Apr-18 00:00N 28°40' W 094°35'0 0.6
2018-Apr-17 23:30N 28°39' W 094°35'0 0.6
2018-Apr-17 22:59N 28°39' W 094°35'0 0.5
2018-Apr-17 22:30N 28°39' W 094°35'0 0.6
2018-Apr-17 22:00N 28°39' W 094°35'0 0.7
2018-Apr-17 21:30N 28°38' W 094°34'0 0.7
2018-Apr-17 21:00N 28°38' W 094°34'0 0.7
2018-Apr-17 20:30N 28°38' W 094°34'0 0.7
2018-Apr-17 20:00N 28°38' W 094°34'1 1.1
2018-Apr-17 19:30N 28°37' W 094°33'1 1.0
2018-Apr-17 19:00N 28°37' W 094°33'1 1.1
2018-Apr-17 18:30N 28°36' W 094°33'1 1.8
2018-Apr-17 18:00N 28°36' W 094°32'1 2.4
2018-Apr-17 17:30N 28°36' W 094°30'1 1.0
2018-Apr-17 16:39N 28°37' W 094°30'0 0.1
2018-Apr-17 16:10N 28°37' W 094°30'0 0.0
2018-Apr-17 15:47N 28°37' W 094°30'0 0.0
2018-Apr-17 15:30N 28°37' W 094°30'0 0.0
2018-Apr-17 13:56N 28°37' W 094°30'0 0.0
2018-Apr-17 13:29N 28°37' W 094°30'0 0.0
2018-Apr-17 13:00N 28°37' W 094°30'0 0.0
2018-Apr-17 12:30N 28°37' W 094°30'0 0.0
2018-Apr-17 11:54N 28°37' W 094°30'0 0.0
2018-Apr-17 11:30N 28°37' W 094°30'0 0.0
2018-Apr-17 11:00N 28°37' W 094°30'0 0.0
2018-Apr-17 10:22N 28°37' W 094°30'0 0.0
2018-Apr-17 09:50N 28°37' W 094°30'0 0.0
2018-Apr-17 09:29N 28°37' W 094°30'0 0.0
2018-Apr-17 08:59N 28°37' W 094°30'0 0.0
2018-Apr-17 08:30N 28°37' W 094°30'0 0.0
2018-Apr-17 08:00N 28°37' W 094°30'0 0.0
2018-Apr-17 07:30N 28°37' W 094°30'0 0.0
2018-Apr-17 06:58N 28°37' W 094°30'0 0.0
2018-Apr-17 06:30N 28°37' W 094°30'0 0.0
2018-Apr-17 06:00N 28°37' W 094°30'0 0.0
2018-Apr-17 05:30N 28°37' W 094°30'0 0.0
2018-Apr-17 05:00N 28°37' W 094°30'0 0.9
2018-Apr-17 04:30N 28°36' W 094°29'1 2.6
2018-Apr-17 04:00N 28°36' W 094°28'1 2.1
2018-Apr-17 03:30N 28°36' W 094°26'2 4.7
2018-Apr-17 03:00N 28°36' W 094°24'3 5.1
2018-Apr-17 02:28N 28°35' W 094°21'3 5.3
2018-Apr-17 01:59N 28°35' W 094°18'2 3.6
2018-Apr-17 01:30N 28°36' W 094°16'1 0.9
2018-Apr-17 00:17N 28°37' W 094°16'311.4
2018-Apr-17 00:00N 28°39' W 094°14'611.9
2018-Apr-16 23:30N 28°43' W 094°09'611.9
2018-Apr-16 23:00N 28°48' W 094°04'811.8
2018-Apr-16 22:21N 28°54' W 093°59'411.5
2018-Apr-16 22:00N 28°57' W 093°56'611.5
2018-Apr-16 21:30N 29°02' W 093°52'910.6
2018-Apr-16 20:40N 29°08' W 093°45'211.2
2018-Apr-16 20:31N 29°10' W 093°44'610.7
2018-Apr-16 19:57N 29°15' W 093°42'4 9.5
2018-Apr-16 19:31N 29°19' W 093°40'5 9.8
2018-Apr-16 19:00N 29°24' W 093°40'5 9.1
2018-Apr-16 18:30N 29°29' W 093°40'510.0
2018-Apr-16 18:00N 29°32' W 093°44'510.1
2018-Apr-16 17:30N 29°36' W 093°48'5 9.9
2018-Apr-16 17:00N 29°40' W 093°50'5 9.3
2018-Apr-16 16:30N 29°44' W 093°53'4 7.8
2018-Apr-16 16:01N 29°47' W 093°56'3 6.9
2018-Apr-16 15:30N 29°50' W 093°57'2 4.7
2018-Apr-16 15:00N 29°52' W 093°56'3 6.7
2018-Apr-16 14:30N 29°55' W 093°54'2 4.9
2018-Apr-16 14:00N 29°57' W 093°52'2 4.7
2018-Apr-16 13:30N 29°59' W 093°53'3 5.5
2018-Apr-16 13:00N 29°59' W 093°56'2 4.4
2018-Apr-16 12:30N 30°01' W 093°58'1 3.0
2018-Apr-16 12:00N 30°01' W 093°59'0 0.0
2018-Apr-16 11:30N 30°01' W 093°59'0 0.0
2018-Apr-16 11:00N 30°01' W 093°59'0 0.0
2018-Apr-16 10:30N 30°01' W 093°59'0 0.0
2018-Apr-16 10:00N 30°01' W 093°59'0 0.0
2018-Apr-16 09:30N 30°01' W 093°59'0 0.0
2018-Apr-16 09:00N 30°01' W 093°59'0 0.0
2018-Apr-16 08:30N 30°01' W 093°59'0 0.0
2018-Apr-16 08:00N 30°01' W 093°59'0 0.0
2018-Apr-16 07:30N 30°01' W 093°59'0 0.0
2018-Apr-16 07:00N 30°01' W 093°59'0 0.0
2018-Apr-16 06:30N 30°01' W 093°59'0 0.0
2018-Apr-16 06:00N 30°01' W 093°59'0 0.0
2018-Apr-16 05:30N 30°01' W 093°59'0 0.0
2018-Apr-16 05:00N 30°01' W 093°59'0 0.0
2018-Apr-16 04:30N 30°01' W 093°59'0 0.0
2018-Apr-16 04:00N 30°01' W 093°59'0 0.0
2018-Apr-16 03:30N 30°01' W 093°59'0 0.0
2018-Apr-16 03:00N 30°01' W 093°59'0 0.0
2018-Apr-16 02:30N 30°01' W 093°59'0 0.0
2018-Apr-16 02:00N 30°01' W 093°59'0 0.0
2018-Apr-16 01:30N 30°01' W 093°59'0 0.0
2018-Apr-16 01:00N 30°01' W 093°59'0 0.0
2018-Apr-16 00:30N 30°01' W 093°59'0 0.0
2018-Apr-16 00:00N 30°01' W 093°59'0 0.0
2018-Apr-15 23:30N 30°01' W 093°59'0 0.0
2018-Apr-15 23:00N 30°01' W 093°59'0 0.0
2018-Apr-15 22:30N 30°01' W 093°59'0 0.0
2018-Apr-15 22:00N 30°01' W 093°59'0 0.0
2018-Apr-15 21:30N 30°01' W 093°59'0 0.0
2018-Apr-15 21:00N 30°01' W 093°59'0 0.0
2018-Apr-15 20:30N 30°01' W 093°59'0 0.0
2018-Apr-15 20:00N 30°01' W 093°59'0 0.0
2018-Apr-15 19:30N 30°01' W 093°59'0 0.0
2018-Apr-15 19:00N 30°01' W 093°59'0 0.0
2018-Apr-15 18:30N 30°01' W 093°59'0 0.0
2018-Apr-15 18:00N 30°01' W 093°59'0 0.0
2018-Apr-15 17:30N 30°01' W 093°59'0 0.0
2018-Apr-15 17:00N 30°01' W 093°59'0 0.0
2018-Apr-15 16:30N 30°01' W 093°59'0 0.0
2018-Apr-15 16:00N 30°01' W 093°59'0 0.0
2018-Apr-15 15:30N 30°01' W 093°59'0 0.0
2018-Apr-15 15:00N 30°01' W 093°59'0 0.0
2018-Apr-15 14:27N 30°01' W 093°59'0 0.0
2018-Apr-15 14:00N 30°01' W 093°59'0 0.0
2018-Apr-15 13:30N 30°01' W 093°59'0 0.0
2018-Apr-15 13:00N 30°01' W 093°59'0 0.0
2018-Apr-15 12:30N 30°01' W 093°59'0 0.0
2018-Apr-15 12:00N 30°01' W 093°59'0 0.0
2018-Apr-15 11:30N 30°01' W 093°59'0 0.0
2018-Apr-15 11:00N 30°01' W 093°59'0 0.0
2018-Apr-15 10:30N 30°01' W 093°59'0 0.0
2018-Apr-15 10:00N 30°01' W 093°59'0 0.0
2018-Apr-15 09:30N 30°01' W 093°59'0 0.0
2018-Apr-15 09:00N 30°01' W 093°59'0 0.0
2018-Apr-15 08:30N 30°01' W 093°59'0 0.0
2018-Apr-15 08:00N 30°01' W 093°59'0 0.0
2018-Apr-15 07:30N 30°01' W 093°59'0 0.0
2018-Apr-15 07:00N 30°01' W 093°59'0 0.0
2018-Apr-15 06:30N 30°01' W 093°59'0 0.0
2018-Apr-15 06:00N 30°01' W 093°59'0 0.0
2018-Apr-15 05:30N 30°01' W 093°59'0 0.0
2018-Apr-15 05:00N 30°01' W 093°59'0 0.0
2018-Apr-15 04:30N 30°01' W 093°59'0 0.0
2018-Apr-15 04:00N 30°01' W 093°59'0 0.0
2018-Apr-15 03:30N 30°01' W 093°59'0 0.0
2018-Apr-15 03:00N 30°01' W 093°59'0 0.0
2018-Apr-15 02:30N 30°01' W 093°59'0 0.0
2018-Apr-15 02:00N 30°01' W 093°59'0 0.0
2018-Apr-15 01:30N 30°01' W 093°59'0 0.1
2018-Apr-15 01:00N 30°01' W 093°59'0 0.0
2018-Apr-15 00:30N 30°01' W 093°59'0 0.0
2018-Apr-15 00:00N 30°01' W 093°59'0 0.0
2018-Apr-14 23:30N 30°01' W 093°59'0 0.0
2018-Apr-14 23:00N 30°01' W 093°59'0 0.0
2018-Apr-14 22:30N 30°01' W 093°59'0 0.0
2018-Apr-14 22:00N 30°01' W 093°59'0 0.0
2018-Apr-14 21:30N 30°01' W 093°59'0 0.0
2018-Apr-14 21:00N 30°01' W 093°59'0 0.0
2018-Apr-14 20:30N 30°01' W 093°59'0 0.0
2018-Apr-14 20:00N 30°01' W 093°59'0 0.0
2018-Apr-14 19:24N 30°01' W 093°59'0 0.0
2018-Apr-14 19:00N 30°01' W 093°59'0 0.0
2018-Apr-14 18:30N 30°01' W 093°59'0 0.1
2018-Apr-14 18:00N 30°01' W 093°59'2 4.3
2018-Apr-14 17:30N 29°60' W 093°57'2 4.8
2018-Apr-14 17:00N 29°59' W 093°54'0 0.2
2018-Apr-14 16:30N 29°59' W 093°54'0 0.0
2018-Apr-14 16:00N 29°59' W 093°54'0 0.0
2018-Apr-14 15:30N 29°59' W 093°54'0 0.0
2018-Apr-14 15:00N 29°59' W 093°54'0 0.0
2018-Apr-14 14:30N 29°59' W 093°54'0 0.0
2018-Apr-14 14:00N 29°59' W 093°54'0 0.0
2018-Apr-14 13:30N 29°59' W 093°54'0 0.1
2018-Apr-14 13:00N 29°59' W 093°54'0 0.1
2018-Apr-14 12:30N 29°59' W 093°54'0 0.0
2018-Apr-14 12:00N 29°59' W 093°54'0 0.0
2018-Apr-14 11:30N 29°59' W 093°54'0 0.1
2018-Apr-14 11:00N 29°59' W 093°54'0 0.1
2018-Apr-14 10:30N 29°59' W 093°54'0 0.1
2018-Apr-14 10:00N 29°59' W 093°54'0 0.0
2018-Apr-14 09:30N 29°59' W 093°54'0 0.3
2018-Apr-14 09:00N 29°59' W 093°54'0 0.0
2018-Apr-14 08:30N 29°59' W 093°54'0 0.0
2018-Apr-14 08:00N 29°59' W 093°54'0 0.0
2018-Apr-14 07:30N 29°59' W 093°54'0 0.0
2018-Apr-14 07:00N 29°59' W 093°54'0 0.0
2018-Apr-14 06:30N 29°59' W 093°54'0 0.0
2018-Apr-14 06:00N 29°59' W 093°54'0 0.0
2018-Apr-14 05:30N 29°59' W 093°54'0 0.0
2018-Apr-14 05:00N 29°59' W 093°54'0 0.1
2018-Apr-14 04:30N 29°59' W 093°54'0 0.3
2018-Apr-14 04:00N 29°59' W 093°54'1 2.6
2018-Apr-14 03:29N 29°59' W 093°56'0 0.7
2018-Apr-14 03:01N 29°60' W 093°56'0 0.0
2018-Apr-14 02:29N 29°60' W 093°56'0 0.0
2018-Apr-14 01:59N 29°60' W 093°56'0 0.0
2018-Apr-14 01:29N 29°60' W 093°56'0 0.0
2018-Apr-14 00:59N 29°60' W 093°56'0 0.0
2018-Apr-14 00:29N 29°59' W 093°56'0 0.0
2018-Apr-13 23:56N 29°60' W 093°56'0 0.0
2018-Apr-13 23:29N 29°60' W 093°56'0 0.0
2018-Apr-13 22:59N 29°60' W 093°56'0 0.0
2018-Apr-13 22:29N 29°59' W 093°56'0 0.0
2018-Apr-13 21:59N 29°59' W 093°56'0 0.0
2018-Apr-13 21:29N 29°59' W 093°56'0 0.0
2018-Apr-13 20:59N 29°59' W 093°56'0 0.0
2018-Apr-13 20:29N 29°60' W 093°56'0 0.0
2018-Apr-13 19:59N 29°60' W 093°56'0 0.0
2018-Apr-13 19:26N 29°60' W 093°56'0 0.0
2018-Apr-13 18:59N 29°60' W 093°56'0 0.0
2018-Apr-13 18:29N 29°59' W 093°56'0 0.0
2018-Apr-13 17:59N 29°59' W 093°56'0 0.0
2018-Apr-13 17:29N 29°60' W 093°56'0 0.0
2018-Apr-13 16:59N 29°59' W 093°56'0 0.0
2018-Apr-13 16:29N 29°60' W 093°56'0 0.0
2018-Apr-13 15:59N 29°60' W 093°56'0 0.0
2018-Apr-13 15:29N 29°59' W 093°56'0 0.0
2018-Apr-13 14:59N 29°59' W 093°56'0 0.0
2018-Apr-13 14:29N 29°59' W 093°56'0 0.0
2018-Apr-13 13:59N 29°60' W 093°56'0 0.0
2018-Apr-13 13:29N 29°60' W 093°56'0 0.0
2018-Apr-13 12:59N 29°60' W 093°56'0 0.0
2018-Apr-13 12:29N 29°59' W 093°56'0 0.0
2018-Apr-13 11:59N 29°59' W 093°56'0 0.0
2018-Apr-13 11:29N 29°59' W 093°56'0 0.0
2018-Apr-13 10:59N 29°60' W 093°56'0 0.0
2018-Apr-13 10:26N 29°60' W 093°56'0 0.0
2018-Apr-13 09:59N 29°60' W 093°56'0 0.0
2018-Apr-13 09:26N 29°59' W 093°56'0 0.0
2018-Apr-13 08:59N 29°60' W 093°56'0 0.0
2018-Apr-13 08:29N 29°60' W 093°56'0 0.0
2018-Apr-13 07:59N 29°60' W 093°56'0 0.0
2018-Apr-13 07:29N 29°60' W 093°56'0 0.0
2018-Apr-13 06:59N 29°59' W 093°56'0 0.0
2018-Apr-13 06:29N 29°59' W 093°56'0 0.0
2018-Apr-13 05:59N 29°59' W 093°56'0 0.0
2018-Apr-13 05:29N 29°60' W 093°56'0 0.0
2018-Apr-13 04:59N 29°60' W 093°56'0 0.0
2018-Apr-13 04:29N 29°60' W 093°56'0 0.0
2018-Apr-13 03:59N 29°59' W 093°56'0 0.0
2018-Apr-13 03:29N 29°59' W 093°56'0 0.0
2018-Apr-13 02:56N 29°59' W 093°56'0 0.0
2018-Apr-13 02:29N 29°60' W 093°56'0 0.0
2018-Apr-13 01:59N 29°60' W 093°56'0 0.0
2018-Apr-13 01:29N 29°60' W 093°56'0 0.0
2018-Apr-13 00:59N 29°60' W 093°56'0 0.0
2018-Apr-13 00:29N 29°59' W 093°56'0 0.0
2018-Apr-12 23:59N 29°60' W 093°56'0 0.0
2018-Apr-12 23:29N 29°60' W 093°56'0 0.0
2018-Apr-12 23:00N 29°60' W 093°56'2 4.4
2018-Apr-12 22:30N 29°59' W 093°54'2 4.7
2018-Apr-12 22:00N 29°58' W 093°51'3 5.8
2018-Apr-12 21:30N 29°55' W 093°53'3 6.4
2018-Apr-12 21:00N 29°53' W 093°55'3 5.2
2018-Apr-12 20:30N 29°51' W 093°57'3 6.3
2018-Apr-12 20:00N 29°48' W 093°57'3 6.8
2018-Apr-12 19:30N 29°46' W 093°54'4 7.7
2018-Apr-12 19:00N 29°42' W 093°51'5 9.1
2018-Apr-12 18:30N 29°38' W 093°49'5 9.5
2018-Apr-12 18:00N 29°34' W 093°46'5 9.9
2018-Apr-12 17:30N 29°31' W 093°42'5 8.9
2018-Apr-12 17:00N 29°27' W 093°40'3 7.1
2018-Apr-12 16:30N 29°23' W 093°40'1 1.9
2018-Apr-12 16:00N 29°22' W 093°40'1 1.1
2018-Apr-12 15:29N 29°22' W 093°41'1 3.0
2018-Apr-12 15:00N 29°21' W 093°42'0 0.4
2018-Apr-12 14:30N 29°21' W 093°42'0 0.0
2018-Apr-12 14:00N 29°21' W 093°42'0 0.0
2018-Apr-12 13:30N 29°21' W 093°42'0 0.0
2018-Apr-12 13:00N 29°21' W 093°42'0 0.0
2018-Apr-12 12:30N 29°21' W 093°42'0 0.0
2018-Apr-12 12:00N 29°21' W 093°42'0 0.0
2018-Apr-12 11:30N 29°21' W 093°42'0 0.0
2018-Apr-12 10:57N 29°21' W 093°42'0 0.1
2018-Apr-12 10:30N 29°21' W 093°42'0 0.1
2018-Apr-12 10:00N 29°21' W 093°42'0 0.0
2018-Apr-12 09:30N 29°21' W 093°42'0 0.0
2018-Apr-12 09:00N 29°21' W 093°42'0 0.1
2018-Apr-12 08:18N 29°21' W 093°42'0 0.1
2018-Apr-12 07:48N 29°21' W 093°42'0 0.0
2018-Apr-12 07:30N 29°21' W 093°42'0 0.0
2018-Apr-12 07:00N 29°21' W 093°42'0 0.0
2018-Apr-12 06:15N 29°21' W 093°42'0 0.0
2018-Apr-12 05:57N 29°21' W 093°42'0 0.0
2018-Apr-12 05:30N 29°21' W 093°42'0 0.0
2018-Apr-12 05:00N 29°21' W 093°42'0 0.0
2018-Apr-12 04:18N 29°21' W 093°42'0 0.0
2018-Apr-12 03:24N 29°21' W 093°42'0 0.0
2018-Apr-12 03:00N 29°21' W 093°42'0 0.0
2018-Apr-12 02:30N 29°21' W 093°42'0 0.0
2018-Apr-12 02:00N 29°21' W 093°42'0 0.0
2018-Apr-12 01:30N 29°21' W 093°42'0 0.0
2018-Apr-12 01:00N 29°21' W 093°42'0 0.1
2018-Apr-12 00:28N 29°21' W 093°42'1 2.6
2018-Apr-12 00:00N 29°20' W 093°41'4 7.1
2018-Apr-11 23:30N 29°16' W 093°42'5 9.4
2018-Apr-11 23:00N 29°12' W 093°42'510.1
2018-Apr-11 22:30N 29°07' W 093°42'5 9.7
2018-Apr-11 22:00N 29°03' W 093°45'43 8.8
2018-Apr-11 17:08N 28°28' W 094°14'13 0.5
2018-Apr-10 14:08N 28°40' W 094°22'0 0.3
2018-Apr-10 13:47N 28°40' W 094°22'0 0.0
2018-Apr-09 22:53N 28°40' W 094°22'1 1.4
2018-Apr-09 22:28N 28°40' W 094°21'1 1.8
2018-Apr-09 21:58N 28°40' W 094°20'1 1.8
2018-Apr-09 21:30N 28°40' W 094°19'2 3.5
2018-Apr-09 20:49N 28°40' W 094°22'1 3.8
2018-Apr-09 20:29N 28°40' W 094°23'1 2.0
2018-Apr-09 19:56N 28°40' W 094°22'1 1.9
2018-Apr-09 19:16N 28°40' W 094°21'1 1.7
2018-Apr-09 18:43N 28°40' W 094°20'1 2.0
2018-Apr-09 18:17N 28°40' W 094°19'2 6.0
2018-Apr-09 18:00N 28°39' W 094°19'4 3.2
2018-Apr-09 16:49N 28°35' W 094°19'411.4
2018-Apr-09 16:30N 28°31' W 094°19'  

Dump ship's entire track history